createdAt,value
2022-08-12T00:00:03.869Z,4.43
2022-08-12T00:02:51.507Z,4.70
2022-08-12T00:05:39.810Z,4.82
2022-08-12T00:08:46.049Z,4.43
2022-08-12T00:11:33.051Z,4.55
2022-08-12T00:14:19.115Z,4.05
2022-08-12T00:17:07.345Z,5.07
2022-08-12T00:19:54.687Z,4.70
2022-08-12T00:22:41.448Z,4.43
2022-08-12T00:26:05.755Z,4.22
2022-08-12T00:28:34.511Z,4.00
2022-08-12T00:31:20.651Z,4.22
2022-08-12T00:34:06.447Z,4.60
2022-08-12T00:36:54.055Z,4.25
2022-08-12T00:39:40.753Z,4.25
2022-08-12T00:42:11.829Z,4.68
2022-08-12T00:44:42.277Z,4.70
2022-08-12T00:47:25.143Z,4.38
2022-08-12T00:49:55.370Z,4.50
2022-08-12T00:52:25.698Z,4.68
2022-08-12T00:54:57.254Z,4.18
2022-08-12T00:57:27.448Z,4.82
2022-08-12T00:59:58.397Z,5.18
2022-08-12T01:02:28.641Z,4.80
2022-08-12T01:05:16.948Z,4.97
2022-08-12T01:08:06.404Z,4.70
2022-08-12T01:10:55.187Z,4.60
2022-08-12T01:13:24.594Z,4.75
2022-08-12T01:15:55.508Z,5.50
2022-08-12T01:18:25.709Z,5.40
2022-08-12T01:21:04.254Z,5.13
2022-08-12T01:24:29.549Z,5.47
2022-08-12T01:26:54.707Z,5.10
2022-08-12T01:29:28.647Z,4.90
2022-08-12T01:32:06.333Z,4.80
2022-08-12T01:34:38.572Z,5.20
2022-08-12T01:37:08.819Z,4.78
2022-08-12T01:40:33.383Z,4.88
2022-08-12T01:42:35.612Z,5.43
2022-08-12T01:45:04.975Z,5.28
2022-08-12T01:47:55.083Z,4.80
2022-08-12T01:50:29.804Z,4.63
2022-08-12T01:53:05.205Z,4.68
2022-08-12T01:55:38.336Z,4.38
2022-08-12T01:58:24.140Z,4.35
2022-08-12T02:00:58.695Z,4.22
2022-08-12T02:04:14.166Z,4.47
2022-08-12T02:07:14.616Z,5.18
2022-08-12T02:10:50.237Z,4.60
2022-08-12T02:13:08.768Z,4.90
2022-08-12T02:15:46.708Z,4.63
2022-08-12T02:18:25.566Z,4.97
2022-08-12T02:21:01.615Z,4.95
2022-08-12T02:23:31.909Z,5.00
2022-08-12T02:26:05.434Z,5.65
2022-08-12T02:28:33.903Z,5.55
2022-08-12T02:31:06.784Z,5.97
2022-08-12T02:33:35.699Z,5.97
2022-08-12T02:36:04.760Z,6.05
2022-08-12T02:38:33.855Z,6.15
2022-08-12T02:41:05.294Z,6.05
2022-08-12T02:43:41.514Z,6.55
2022-08-12T02:46:14.708Z,6.50
2022-08-12T02:48:48.019Z,5.93
2022-08-12T02:51:19.438Z,6.45
2022-08-12T02:54:04.962Z,6.30
2022-08-12T02:56:38.006Z,6.50
2022-08-12T02:59:06.833Z,6.65
2022-08-12T03:01:47.799Z,6.18
2022-08-12T03:04:26.774Z,6.53
2022-08-12T03:07:03.172Z,7.05
2022-08-12T03:09:40.720Z,6.90
2022-08-12T03:12:25.681Z,6.88
2022-08-12T03:14:56.033Z,7.03
2022-08-12T03:17:30.388Z,7.53
2022-08-12T03:20:10.126Z,6.55
2022-08-12T03:22:41.459Z,6.40
2022-08-12T03:25:17.205Z,6.90
2022-08-12T03:27:51.765Z,6.85
2022-08-12T03:30:20.670Z,6.60
2022-08-12T03:32:52.499Z,7.30
2022-08-12T03:35:41.477Z,7.07
2022-08-12T03:38:16.118Z,7.13
2022-08-12T03:41:14.657Z,7.10
2022-08-12T03:44:09.103Z,8.02
2022-08-12T03:47:00.456Z,7.40
2022-08-12T03:49:47.837Z,7.85
2022-08-12T03:52:33.424Z,6.93
2022-08-12T03:55:19.433Z,7.72
2022-08-12T03:58:08.375Z,7.60
2022-08-12T04:00:38.483Z,7.00
2022-08-12T04:03:27.700Z,7.55
2022-08-12T04:05:57.230Z,7.97
2022-08-12T04:08:26.815Z,8.13
2022-08-12T04:11:12.827Z,8.20
2022-08-12T04:13:41.772Z,7.25
2022-08-12T04:16:13.665Z,7.13
2022-08-12T04:18:42.472Z,8.25
2022-08-12T04:21:12.489Z,7.65
2022-08-12T04:23:46.339Z,7.82
2022-08-12T04:26:17.360Z,8.05
2022-08-12T04:28:45.767Z,8.05
2022-08-12T04:31:14.266Z,7.45
2022-08-12T04:33:43.828Z,7.78
2022-08-12T04:36:13.662Z,8.30
2022-08-12T04:38:43.133Z,7.10
2022-08-12T04:41:11.699Z,7.30
2022-08-12T04:44:00.129Z,7.22
2022-08-12T04:46:31.945Z,7.32
2022-08-12T04:49:03.647Z,7.07
2022-08-12T04:51:34.029Z,8.15
2022-08-12T04:54:03.502Z,7.95
2022-08-12T04:56:35.430Z,7.32
2022-08-12T04:59:04.410Z,7.28
2022-08-12T05:01:32.884Z,7.65
2022-08-12T05:04:04.027Z,7.72
2022-08-12T05:06:34.565Z,7.60
2022-08-12T05:09:03.291Z,7.70
2022-08-12T05:11:54.259Z,8.05
2022-08-12T05:14:23.978Z,7.38
2022-08-12T05:16:53.302Z,7.03
2022-08-12T05:19:22.559Z,7.75
2022-08-12T05:21:53.861Z,7.35
2022-08-12T05:24:22.428Z,7.22
2022-08-12T05:26:51.941Z,7.03
2022-08-12T05:30:06.790Z,6.18
2022-08-12T05:32:09.374Z,6.18
2022-08-12T05:34:38.108Z,6.82
2022-08-12T05:37:07.624Z,6.05
2022-08-12T05:39:35.984Z,6.18
2022-08-12T05:42:05.057Z,5.93
2022-08-12T05:44:33.835Z,6.32
2022-08-12T05:47:02.291Z,6.25
2022-08-12T05:49:30.940Z,6.55
2022-08-12T05:51:59.097Z,5.43
2022-08-12T05:54:47.698Z,6.28
2022-08-12T05:57:17.264Z,6.03
2022-08-12T05:59:45.544Z,5.97
2022-08-12T06:02:14.490Z,5.82
2022-08-12T06:04:43.527Z,6.20
2022-08-12T06:07:59.558Z,6.25
2022-08-12T06:10:05.138Z,5.70
2022-08-12T06:12:33.487Z,6.07
2022-08-12T06:15:03.114Z,6.32
2022-08-12T06:17:31.763Z,5.93
2022-08-12T06:20:27.695Z,6.55
2022-08-12T06:22:49.039Z,6.10
2022-08-12T06:25:27.775Z,6.78
2022-08-12T06:28:07.511Z,6.63
2022-08-12T06:30:39.325Z,6.80
2022-08-12T06:33:24.904Z,7.50
2022-08-12T06:35:58.943Z,6.72
2022-08-12T06:38:28.444Z,6.68
2022-08-12T06:41:19.454Z,6.88
2022-08-12T06:44:05.725Z,7.00
2022-08-12T06:46:36.848Z,6.30
2022-08-12T06:49:06.901Z,7.10
2022-08-12T06:51:35.338Z,7.03
2022-08-12T06:54:04.184Z,7.40
2022-08-12T06:57:02.292Z,7.68
2022-08-12T06:59:23.415Z,8.02
2022-08-12T07:01:52.153Z,7.72
2022-08-12T07:04:38.965Z,8.63
2022-08-12T07:07:08.842Z,8.85
2022-08-12T07:10:00.159Z,7.78
2022-08-12T07:12:28.324Z,8.05
2022-08-12T07:14:57.134Z,8.73
2022-08-12T07:17:25.642Z,8.77
2022-08-12T07:19:55.509Z,8.55
2022-08-12T07:22:26.557Z,8.73
2022-08-12T07:25:08.983Z,8.45
2022-08-12T07:27:40.900Z,8.75
2022-08-12T07:30:10.870Z,8.27
2022-08-12T07:32:39.818Z,8.65
2022-08-12T07:35:08.842Z,8.63
2022-08-12T07:37:42.616Z,8.30
2022-08-12T07:40:12.185Z,9.73
2022-08-12T07:42:43.631Z,9.23
2022-08-12T07:45:12.659Z,9.30
2022-08-12T07:47:43.246Z,9.38
2022-08-12T07:50:12.059Z,8.70
2022-08-12T07:52:42.843Z,9.15
2022-08-12T07:55:12.043Z,8.77
2022-08-12T07:57:54.196Z,9.38
2022-08-12T08:00:22.746Z,9.10
2022-08-12T08:02:54.744Z,9.48
2022-08-12T08:05:28.474Z,9.18
2022-08-12T08:08:01.724Z,8.88
2022-08-12T08:10:31.023Z,9.15
2022-08-12T08:13:04.965Z,8.23
2022-08-12T08:16:01.199Z,9.80
2022-08-12T08:18:25.708Z,8.80
2022-08-12T08:20:56.946Z,7.63
2022-08-12T08:23:56.200Z,9.60
2022-08-12T08:26:27.282Z,9.25
2022-08-12T08:28:57.031Z,8.70
2022-08-12T08:31:25.483Z,8.00
2022-08-12T08:34:08.962Z,7.53
2022-08-12T08:36:45.466Z,9.25
2022-08-12T08:39:16.878Z,7.38
2022-08-12T08:42:15.897Z,7.82
2022-08-12T08:44:57.829Z,9.40
2022-08-12T08:47:26.882Z,8.13
2022-08-12T08:50:00.896Z,8.68
2022-08-12T08:52:39.585Z,8.77
2022-08-12T08:55:10.399Z,8.48
2022-08-12T08:57:43.656Z,9.52
2022-08-12T09:00:29.728Z,9.07
2022-08-12T09:02:59.502Z,8.68
2022-08-12T09:05:43.240Z,9.85
2022-08-12T09:08:22.462Z,9.15
2022-08-12T09:12:07.024Z,9.60
2022-08-12T09:16:57.492Z,8.50
2022-08-12T09:22:18.577Z,10.25
2022-08-12T09:24:49.896Z,8.02
2022-08-12T09:27:19.453Z,8.80
2022-08-12T09:30:11.093Z,7.88
2022-08-12T09:33:04.415Z,7.97
2022-08-12T09:35:31.348Z,7.40
2022-08-12T09:38:01.331Z,7.72
2022-08-12T09:41:02.491Z,7.97
2022-08-12T09:43:37.424Z,8.18
2022-08-12T09:46:21.622Z,7.93
2022-08-12T09:48:56.384Z,6.63
2022-08-12T09:51:37.553Z,7.00
2022-08-12T09:54:30.503Z,7.75
2022-08-12T09:57:01.825Z,5.68
2022-08-12T10:00:16.903Z,6.18
2022-08-12T10:02:45.601Z,6.75
2022-08-12T10:05:13.748Z,7.80
2022-08-12T10:07:45.838Z,7.00
2022-08-12T10:10:22.578Z,7.65
2022-08-12T10:13:35.775Z,7.05
2022-08-12T10:16:22.202Z,6.68
2022-08-12T10:18:53.823Z,7.03
2022-08-12T10:21:36.350Z,7.80
2022-08-12T10:24:08.380Z,7.40
2022-08-12T10:26:55.305Z,7.07
2022-08-12T10:30:37.779Z,7.03
2022-08-12T10:32:44.401Z,7.82
2022-08-12T10:35:16.358Z,7.35
2022-08-12T10:38:35.355Z,6.60
2022-08-12T10:40:55.856Z,8.60
2022-08-12T10:43:55.097Z,8.60
2022-08-12T10:46:31.166Z,9.20
2022-08-12T10:49:06.244Z,8.52
2022-08-12T10:52:32.437Z,7.93
2022-08-12T10:54:42.515Z,9.93
2022-08-12T10:57:18.583Z,8.20
2022-08-12T11:00:34.542Z,9.95
2022-08-12T11:04:27.054Z,9.77
2022-08-12T11:07:10.114Z,9.02
2022-08-12T11:08:42.182Z,10.18
2022-08-12T11:11:17.926Z,8.88
2022-08-12T11:14:06.058Z,10.23
2022-08-12T11:16:41.386Z,11.02
2022-08-12T11:19:30.493Z,9.07
2022-08-12T11:22:03.273Z,9.00
2022-08-12T11:24:33.597Z,9.00
2022-08-12T11:27:07.897Z,9.05
2022-08-12T11:30:06.567Z,9.15
2022-08-12T11:32:28.404Z,8.38
2022-08-12T11:34:59.278Z,7.50
2022-08-12T11:37:27.882Z,8.88
2022-08-12T11:42:37.391Z,6.97
2022-08-12T11:45:16.494Z,6.60
2022-08-12T11:47:45.549Z,7.13
2022-08-12T11:50:19.282Z,7.03
2022-08-12T11:52:55.393Z,6.20
2022-08-12T11:55:24.860Z,6.88
2022-08-12T11:58:33.890Z,6.75
2022-08-12T12:03:46.309Z,6.28
2022-08-12T12:06:17.273Z,5.72
2022-08-12T12:08:50.838Z,5.50
2022-08-12T12:11:21.475Z,6.70
2022-08-12T12:14:06.335Z,6.80
2022-08-12T12:16:39.814Z,6.60
2022-08-12T12:19:10.434Z,6.75
2022-08-12T12:21:47.934Z,7.28
2022-08-12T12:24:22.157Z,7.57
2022-08-12T12:27:00.723Z,8.10
2022-08-12T12:30:18.829Z,7.90
2022-08-12T12:32:28.777Z,7.75
2022-08-12T12:35:14.676Z,6.50
2022-08-12T12:38:04.121Z,6.40
2022-08-12T12:40:39.574Z,6.22
2022-08-12T12:43:09.361Z,6.45
2022-08-12T12:45:44.397Z,6.63
2022-08-12T12:48:17.322Z,6.60
2022-08-12T12:50:51.630Z,6.35
2022-08-12T12:54:07.948Z,7.80
2022-08-12T12:56:16.391Z,7.43
2022-08-12T12:58:44.992Z,7.57
2022-08-12T13:01:26.716Z,8.93
2022-08-12T13:04:01.868Z,7.57
2022-08-12T13:06:32.295Z,7.88
2022-08-12T13:09:03.137Z,8.35
2022-08-12T13:11:41.175Z,7.10
2022-08-12T13:14:27.683Z,7.25
2022-08-12T13:17:02.709Z,6.80
2022-08-12T13:19:38.824Z,6.57
2022-08-12T13:22:18.641Z,6.03
2022-08-12T13:24:54.507Z,5.75
2022-08-12T13:27:28.180Z,6.13
2022-08-12T13:30:00.856Z,6.55
2022-08-12T13:32:33.287Z,6.22
2022-08-12T13:35:04.495Z,6.68
2022-08-12T13:37:54.793Z,7.45
2022-08-12T13:40:24.717Z,7.35
2022-08-12T13:42:57.505Z,6.95
2022-08-12T13:45:26.366Z,7.68
2022-08-12T13:47:57.762Z,6.95
2022-08-12T13:50:32.489Z,7.22
2022-08-12T13:53:23.131Z,7.50
2022-08-12T13:55:59.773Z,7.20
2022-08-12T13:58:32.956Z,7.13
2022-08-12T14:01:06.371Z,6.78
2022-08-12T14:03:51.341Z,7.07
2022-08-12T14:06:20.850Z,6.30
2022-08-12T14:08:50.687Z,6.85
2022-08-12T14:11:25.211Z,7.35
2022-08-12T14:14:05.978Z,7.57
2022-08-12T14:16:48.507Z,6.50
2022-08-12T14:19:24.223Z,7.13
2022-08-12T14:21:59.812Z,7.88
2022-08-12T14:24:35.626Z,8.30
2022-08-12T14:27:08.805Z,9.27
2022-08-12T14:30:05.904Z,9.70
2022-08-12T14:32:27.320Z,9.23
2022-08-12T14:34:59.937Z,10.95
2022-08-12T14:37:57.784Z,9.57
2022-08-12T14:40:18.277Z,9.27
2022-08-12T14:42:47.574Z,8.50
2022-08-12T14:45:15.906Z,8.10
2022-08-12T14:47:58.367Z,8.98
2022-08-12T14:50:57.513Z,9.35
2022-08-12T14:59:20.313Z,6.55
2022-08-12T15:01:54.547Z,7.65
2022-08-12T15:04:28.708Z,7.38
2022-08-12T15:07:02.139Z,8.00
2022-08-12T15:09:31.422Z,7.93
2022-08-12T15:12:04.154Z,8.10
2022-08-12T15:14:35.355Z,8.48
2022-08-12T15:17:07.111Z,8.70
2022-08-12T15:20:28.275Z,7.57
2022-08-12T15:22:37.442Z,7.70
2022-08-12T15:25:09.294Z,8.02
2022-08-12T15:28:04.437Z,7.57
2022-08-12T15:30:32.117Z,7.43
2022-08-12T15:33:00.836Z,8.07
2022-08-12T15:35:50.358Z,7.05
2022-08-12T15:38:25.074Z,8.38
2022-08-12T15:40:54.635Z,8.10
2022-08-12T15:43:51.084Z,7.47
2022-08-12T15:46:14.815Z,11.32
2022-08-12T15:48:46.347Z,7.90
2022-08-12T15:51:27.992Z,7.05
2022-08-12T15:54:31.068Z,8.30
2022-08-12T15:57:03.575Z,13.43
2022-08-12T15:59:51.190Z,11.88
2022-08-12T16:02:21.237Z,8.38
2022-08-12T16:04:51.544Z,7.70
2022-08-12T16:07:29.607Z,6.70
2022-08-12T16:10:05.832Z,7.13
2022-08-12T16:12:43.613Z,7.78
2022-08-12T16:15:26.316Z,6.93
2022-08-12T16:18:18.768Z,7.25
2022-08-12T16:20:46.873Z,6.32
2022-08-12T16:23:35.759Z,7.00
2022-08-12T16:26:14.861Z,6.60
2022-08-12T16:28:47.602Z,6.97
2022-08-12T16:31:23.276Z,6.35
2022-08-12T16:33:59.468Z,7.22
2022-08-12T16:36:29.400Z,6.15
2022-08-12T16:39:01.632Z,6.63
2022-08-12T16:41:33.497Z,6.60
2022-08-12T16:44:08.672Z,8.60
2022-08-12T16:46:37.959Z,6.70
2022-08-12T16:49:13.084Z,7.95
2022-08-12T16:51:46.710Z,7.43
2022-08-12T16:54:17.103Z,15.80
2022-08-12T16:56:55.352Z,10.00
2022-08-12T16:59:52.993Z,8.35
2022-08-12T17:02:31.112Z,7.75
2022-08-12T17:05:04.802Z,6.45
2022-08-12T17:07:36.286Z,5.90
2022-08-12T17:10:07.696Z,6.90
2022-08-12T17:12:38.259Z,6.22
2022-08-12T17:15:51.121Z,6.80
2022-08-12T17:18:28.373Z,7.03
2022-08-12T17:20:48.164Z,6.53
2022-08-12T17:23:19.323Z,6.35
2022-08-12T17:25:50.232Z,6.90
2022-08-12T17:28:22.659Z,6.47
2022-08-12T17:30:51.270Z,6.43
2022-08-12T17:33:33.614Z,6.22
2022-08-12T17:36:05.439Z,6.15
2022-08-12T17:38:34.859Z,6.18
2022-08-12T17:41:21.540Z,6.25
2022-08-12T17:43:58.074Z,6.32
2022-08-12T17:46:33.691Z,5.63
2022-08-12T17:49:06.882Z,6.13
2022-08-12T17:52:02.794Z,6.22
2022-08-12T17:54:32.814Z,5.68
2022-08-12T17:57:02.483Z,5.68
2022-08-12T17:59:47.653Z,5.28
2022-08-12T18:02:25.687Z,4.90
2022-08-12T18:05:04.809Z,5.30
2022-08-12T18:07:39.597Z,5.13
2022-08-12T18:10:08.856Z,5.88
2022-08-12T18:12:42.732Z,4.65
2022-08-12T18:15:26.519Z,5.20
2022-08-12T18:18:16.811Z,5.10
2022-08-12T18:20:46.357Z,4.90
2022-08-12T18:23:14.981Z,5.25
2022-08-12T18:26:17.915Z,5.43
2022-08-12T18:28:48.333Z,5.05
2022-08-12T18:31:19.642Z,5.90
2022-08-12T18:33:52.338Z,5.20
2022-08-12T18:36:22.430Z,5.72
2022-08-12T18:38:56.203Z,5.80
2022-08-12T18:41:34.461Z,5.20
2022-08-12T18:44:08.167Z,4.70
2022-08-12T18:46:53.717Z,5.43
2022-08-12T18:49:29.716Z,4.45
2022-08-12T18:52:03.867Z,4.80
2022-08-12T18:54:36.125Z,4.60
2022-08-12T18:57:19.699Z,4.30
2022-08-12T19:00:06.511Z,4.45
2022-08-12T19:02:39.899Z,4.35
2022-08-12T19:05:11.354Z,4.35
2022-08-12T19:07:49.549Z,4.40
2022-08-12T19:10:26.637Z,4.30
2022-08-12T19:13:21.150Z,4.85
2022-08-12T19:15:54.145Z,4.57
2022-08-12T19:18:30.166Z,4.20
2022-08-12T19:21:06.126Z,4.60
2022-08-12T19:23:35.963Z,4.25
2022-08-12T19:26:05.217Z,4.43
2022-08-12T19:28:44.006Z,4.55
2022-08-12T19:31:55.710Z,4.50
2022-08-12T19:34:56.284Z,4.57
2022-08-12T19:37:22.827Z,4.30
2022-08-12T19:40:09.104Z,4.80
2022-08-12T19:42:53.442Z,4.50
2022-08-12T19:45:22.229Z,4.05
2022-08-12T19:47:50.746Z,4.43
2022-08-12T19:50:20.696Z,5.00
2022-08-12T19:52:51.000Z,4.63
2022-08-12T19:55:22.597Z,5.20
2022-08-12T19:58:01.304Z,4.47
2022-08-12T20:00:30.531Z,4.30
2022-08-12T20:03:03.142Z,4.60
2022-08-12T20:06:06.056Z,4.28
2022-08-12T20:08:34.351Z,5.13
2022-08-12T20:12:12.014Z,4.47
2022-08-12T20:14:00.756Z,4.70
2022-08-12T20:17:02.402Z,4.82
2022-08-12T20:19:52.558Z,4.55
2022-08-12T20:22:24.776Z,5.30
2022-08-12T20:25:01.354Z,4.35
2022-08-12T20:28:04.348Z,5.00
2022-08-12T20:30:37.406Z,4.88
2022-08-12T20:33:17.752Z,5.70
2022-08-12T20:36:13.330Z,4.78
2022-08-12T20:38:40.299Z,5.10
2022-08-12T20:41:16.689Z,5.28
2022-08-12T20:43:49.606Z,5.15
2022-08-12T20:46:19.376Z,5.07
2022-08-12T20:48:55.235Z,5.43
2022-08-12T20:51:27.514Z,5.22
2022-08-12T20:53:59.730Z,5.13
2022-08-12T20:56:33.474Z,5.45
2022-08-12T20:59:05.453Z,5.68
2022-08-12T21:01:46.466Z,5.38
2022-08-12T21:04:36.270Z,5.65
2022-08-12T21:07:09.681Z,5.20
2022-08-12T21:09:44.327Z,4.90
2022-08-12T21:12:31.471Z,5.72
2022-08-12T21:15:17.195Z,5.85
2022-08-12T21:18:11.031Z,6.10
2022-08-12T21:20:52.463Z,5.72
2022-08-12T21:23:22.797Z,5.90
2022-08-12T21:25:56.814Z,5.93
2022-08-12T21:28:31.038Z,6.32
2022-08-12T21:32:37.459Z,5.90
2022-08-12T21:34:07.279Z,5.80
2022-08-12T21:36:39.617Z,5.90
2022-08-12T21:39:18.543Z,5.70
2022-08-12T21:41:52.280Z,6.40
2022-08-12T21:44:24.081Z,6.43
2022-08-12T21:47:20.902Z,6.93
2022-08-12T21:50:06.558Z,6.05
2022-08-12T21:52:36.263Z,6.05
2022-08-12T21:55:08.229Z,6.70
2022-08-12T21:57:53.521Z,6.63
2022-08-12T22:00:23.962Z,7.28
2022-08-12T22:04:04.305Z,7.47
2022-08-12T22:06:31.481Z,7.07
2022-08-12T22:09:16.175Z,7.15
2022-08-12T22:11:56.227Z,7.03
2022-08-12T22:14:29.943Z,6.63
2022-08-12T22:17:00.550Z,6.70
2022-08-12T22:19:35.180Z,7.32
2022-08-12T22:22:05.201Z,6.93
2022-08-12T22:24:34.311Z,7.15
2022-08-12T22:27:07.958Z,7.05
2022-08-12T22:30:16.739Z,7.78
2022-08-12T22:32:49.964Z,6.68
2022-08-12T22:35:55.481Z,7.32
2022-08-12T22:38:25.464Z,7.45
2022-08-12T22:40:55.093Z,7.13
2022-08-12T22:43:59.116Z,7.75
2022-08-12T22:46:52.050Z,7.43
2022-08-12T22:49:36.256Z,8.13
2022-08-12T22:52:10.533Z,7.45
2022-08-12T22:55:00.229Z,7.97
2022-08-12T22:57:54.417Z,8.05
2022-08-12T23:00:23.499Z,7.85
2022-08-12T23:02:58.428Z,7.78
2022-08-12T23:05:57.058Z,8.93
2022-08-12T23:08:21.902Z,8.38
2022-08-12T23:10:50.600Z,9.00
2022-08-12T23:13:43.701Z,9.18
2022-08-12T23:16:18.322Z,9.48
2022-08-12T23:19:00.176Z,8.77
2022-08-12T23:22:04.465Z,9.73
2022-08-12T23:24:26.851Z,9.52
2022-08-12T23:27:12.874Z,10.07
2022-08-12T23:29:43.938Z,9.55
2022-08-12T23:32:36.061Z,10.00
2022-08-12T23:35:08.339Z,9.95
2022-08-12T23:37:47.186Z,10.13
2022-08-12T23:40:24.699Z,10.23
2022-08-12T23:42:54.410Z,10.52
2022-08-12T23:45:30.739Z,9.52
2022-08-12T23:48:00.974Z,9.85
2022-08-12T23:50:34.434Z,9.65
2022-08-12T23:53:05.334Z,10.00
2022-08-12T23:55:40.779Z,9.00
2022-08-12T23:58:18.217Z,9.50
